createdAt,value
2019-04-22T00:00:34.028Z,1002.96
2019-04-22T00:01:31.177Z,1002.93
2019-04-22T00:02:28.498Z,1002.93
2019-04-22T00:03:33.911Z,1002.93
2019-04-22T00:04:40.283Z,1002.90
2019-04-22T00:05:48.555Z,1002.88
2019-04-22T00:06:51.614Z,1002.77
2019-04-22T00:07:50.010Z,1002.80
2019-04-22T00:08:55.630Z,1002.85
2019-04-22T00:09:53.222Z,1002.82
2019-04-22T00:10:54.008Z,1002.82
2019-04-22T00:11:52.902Z,1002.82
2019-04-22T00:12:53.011Z,1002.83
2019-04-22T00:13:55.145Z,1002.84
2019-04-22T00:14:48.297Z,1002.76
2019-04-22T00:15:47.817Z,1002.77
2019-04-22T00:16:51.949Z,1002.80
2019-04-22T00:19:57.615Z,1002.82
2019-04-22T00:20:54.240Z,1002.75
2019-04-22T00:21:59.085Z,1002.78
2019-04-22T00:22:52.305Z,1002.74
2019-04-22T00:23:54.881Z,1002.80
2019-04-22T00:24:50.123Z,1002.76
2019-04-22T00:25:57.074Z,1002.72
2019-04-22T00:27:00.282Z,1002.70
2019-04-22T00:27:56.409Z,1002.70
2019-04-22T00:30:53.784Z,1002.69
2019-04-22T00:31:53.062Z,1002.59
2019-04-22T00:32:49.524Z,1002.61
2019-04-22T00:33:51.692Z,1002.55
2019-04-22T00:34:51.365Z,1002.58
2019-04-22T00:35:49.466Z,1002.57
2019-04-22T00:36:52.007Z,1002.62
2019-04-22T00:37:56.696Z,1002.52
2019-04-22T00:38:51.680Z,1002.53
2019-04-22T00:39:51.805Z,1002.51
2019-04-22T00:40:52.224Z,1002.56
2019-04-22T00:41:48.749Z,1002.54
2019-04-22T00:42:53.794Z,1002.47
2019-04-22T00:43:59.623Z,1002.42
2019-04-22T00:44:57.381Z,1002.43
2019-04-22T00:45:53.627Z,1002.46
2019-04-22T00:46:55.690Z,1002.44
2019-04-22T00:47:54.846Z,1002.43
2019-04-22T00:49:31.152Z,1002.46
2019-04-22T00:51:00.101Z,1002.39
2019-04-22T00:52:01.121Z,1002.42
2019-04-22T00:52:57.955Z,1002.47
2019-04-22T00:53:48.101Z,1002.45
2019-04-22T00:54:55.882Z,1002.45
2019-04-22T00:55:54.104Z,1002.41
2019-04-22T00:56:50.848Z,1002.43
2019-04-22T00:58:00.128Z,1002.40
2019-04-22T00:58:50.260Z,1002.39
2019-04-22T00:59:55.051Z,1002.41
2019-04-22T01:00:58.753Z,1002.40
2019-04-22T01:01:54.309Z,1002.42
2019-04-22T01:02:54.413Z,1002.36
2019-04-22T01:03:58.399Z,1002.37
2019-04-22T01:04:55.890Z,1002.35
2019-04-22T01:05:46.613Z,1002.40
2019-04-22T01:06:51.643Z,1002.33
2019-04-22T01:07:53.228Z,1002.34
2019-04-22T01:09:56.184Z,1002.42
2019-04-22T01:10:52.733Z,1002.39
2019-04-22T01:11:56.274Z,1002.37
2019-04-22T01:12:51.193Z,1002.35
2019-04-22T01:13:49.587Z,1002.35
2019-04-22T01:14:51.955Z,1002.34
2019-04-22T01:15:47.546Z,1002.31
2019-04-22T01:16:54.788Z,1002.36
2019-04-22T01:17:51.083Z,1002.38
2019-04-22T01:18:49.217Z,1002.28
2019-04-22T01:21:49.764Z,1002.27
2019-04-22T01:22:46.078Z,1002.27
2019-04-22T01:23:47.985Z,1002.25
2019-04-22T01:24:46.646Z,1002.23
2019-04-22T01:25:46.465Z,1002.28
2019-04-22T01:26:43.530Z,1002.23
2019-04-22T01:27:39.273Z,1002.25
2019-04-22T01:28:39.893Z,1002.21
2019-04-22T01:29:39.755Z,1002.20
2019-04-22T01:30:34.998Z,1002.22
2019-04-22T01:31:31.564Z,1002.21
2019-04-22T01:32:34.032Z,1002.19
2019-04-22T01:33:33.126Z,1002.09
2019-04-22T01:34:40.379Z,1002.15
2019-04-22T01:35:38.658Z,1002.17
2019-04-22T01:36:47.438Z,1002.16
2019-04-22T01:37:46.062Z,1002.17
2019-04-22T01:38:56.302Z,1002.17
2019-04-22T01:39:47.052Z,1002.13
2019-04-22T01:40:58.451Z,1002.05
2019-04-22T01:41:59.761Z,1002.08
2019-04-22T01:42:56.272Z,1002.13
2019-04-22T01:43:58.810Z,1002.15
2019-04-22T01:44:50.623Z,1002.04
2019-04-22T01:45:56.101Z,1002.09
2019-04-22T01:46:50.636Z,1002.06
2019-04-22T01:47:49.280Z,1002.04
2019-04-22T01:48:57.808Z,1002.07
2019-04-22T01:49:57.899Z,1002.05
2019-04-22T01:50:50.223Z,1002.07
2019-04-22T01:51:58.678Z,1002.01
2019-04-22T01:52:56.528Z,1002.06
2019-04-22T01:53:57.690Z,1002.12
2019-04-22T01:55:10.471Z,1002.06
2019-04-22T01:55:55.069Z,1001.98
2019-04-22T01:56:53.887Z,1001.97
2019-04-22T01:57:51.569Z,1002.00
2019-04-22T01:58:47.938Z,1001.99
2019-04-22T01:59:41.357Z,1001.92
2019-04-22T02:00:53.649Z,1001.98
2019-04-22T02:02:55.667Z,1001.94
2019-04-22T02:03:57.435Z,1001.94
2019-04-22T02:04:53.657Z,1001.91
2019-04-22T02:05:53.644Z,1001.89
2019-04-22T02:07:54.291Z,1001.83
2019-04-22T02:09:03.766Z,1001.87
2019-04-22T02:09:53.681Z,1001.89
2019-04-22T02:10:54.586Z,1001.88
2019-04-22T02:11:56.366Z,1001.82
2019-04-22T02:12:53.211Z,1001.84
2019-04-22T02:13:54.388Z,1001.81
2019-04-22T02:14:52.367Z,1001.83
2019-04-22T02:15:57.137Z,1001.83
2019-04-22T02:16:55.931Z,1001.81
2019-04-22T02:17:54.757Z,1001.76
2019-04-22T02:18:53.078Z,1001.79
2019-04-22T02:20:00.614Z,1001.75
2019-04-22T02:20:50.070Z,1001.76
2019-04-22T02:21:48.586Z,1001.83
2019-04-22T02:23:17.631Z,1001.77
2019-04-22T02:24:02.435Z,1001.73
2019-04-22T02:24:50.917Z,1001.69
2019-04-22T02:25:57.664Z,1001.76
2019-04-22T02:26:51.698Z,1001.76
2019-04-22T02:28:03.312Z,1001.77
2019-04-22T02:28:47.537Z,1001.74
2019-04-22T02:31:16.033Z,1001.72
2019-04-22T02:31:59.340Z,1001.70
2019-04-22T02:33:15.507Z,1001.68
2019-04-22T02:34:12.047Z,1001.68
2019-04-22T02:35:11.178Z,1001.69
2019-04-22T02:36:08.120Z,1001.63
2019-04-22T02:37:54.362Z,1001.70
2019-04-22T02:40:01.605Z,1001.65
2019-04-22T02:41:54.927Z,1001.57
2019-04-22T02:43:01.946Z,1001.59
2019-04-22T02:46:12.936Z,1001.50
2019-04-22T02:47:58.726Z,1001.47
2019-04-22T02:49:06.069Z,1001.46
2019-04-22T02:49:56.810Z,1001.50
2019-04-22T02:51:02.538Z,1001.45
2019-04-22T02:51:52.157Z,1001.44
2019-04-22T02:52:58.019Z,1001.37
2019-04-22T02:56:02.133Z,1001.42
2019-04-22T02:56:57.827Z,1001.43
2019-04-22T02:58:12.591Z,1001.45
2019-04-22T02:59:02.431Z,1001.41
2019-04-22T03:00:10.054Z,1001.44
2019-04-22T03:06:07.916Z,1001.37
2019-04-22T03:06:42.821Z,1001.30
2019-04-22T03:07:58.853Z,1001.37
2019-04-22T03:09:12.582Z,1001.31
2019-04-22T03:09:52.895Z,1001.35
2019-04-22T03:12:02.565Z,1001.25
2019-04-22T03:12:54.041Z,1001.33
2019-04-22T03:17:01.108Z,1001.20
2019-04-22T03:20:02.014Z,1001.23
2019-04-22T03:20:58.540Z,1001.22
2019-04-22T03:21:54.857Z,1001.19
2019-04-22T03:24:05.949Z,1001.18
2019-04-22T03:25:24.223Z,1001.22
2019-04-22T03:26:59.240Z,1001.20
2019-04-22T03:28:10.231Z,1001.20
2019-04-22T03:30:18.784Z,1001.14
2019-04-22T03:33:16.421Z,1001.12
2019-04-22T03:34:38.690Z,1001.15
2019-04-22T03:36:05.851Z,1001.14
2019-04-22T03:37:52.598Z,1001.17
2019-04-22T03:40:07.229Z,1001.08
2019-04-22T03:41:03.942Z,1001.13
2019-04-22T03:42:05.663Z,1001.05
2019-04-22T03:44:10.848Z,1001.06
2019-04-22T03:45:00.905Z,1001.13
2019-04-22T03:45:46.342Z,1001.04
2019-04-22T03:49:10.886Z,1001.05
2019-04-22T03:50:57.538Z,1001.10
2019-04-22T03:52:05.488Z,1001.13
2019-04-22T03:53:04.037Z,1001.07
2019-04-22T03:54:19.149Z,1001.09
2019-04-22T03:55:09.111Z,1001.13
2019-04-22T03:55:53.150Z,1001.09
2019-04-22T03:57:59.486Z,1001.04
2019-04-22T03:59:59.342Z,1001.04
2019-04-22T04:00:55.525Z,1001.07
2019-04-22T04:04:19.141Z,1001.11
2019-04-22T04:04:53.296Z,1001.09
2019-04-22T04:08:12.684Z,1001.05
2019-04-22T04:09:03.394Z,1001.03
2019-04-22T04:10:01.836Z,1001.09
2019-04-22T04:12:01.941Z,1001.07
2019-04-22T04:12:56.183Z,1001.06
2019-04-22T04:14:05.340Z,1001.07
2019-04-22T04:15:05.401Z,1001.03
2019-04-22T04:15:52.355Z,1001.08
2019-04-22T04:17:08.798Z,1001.03
2019-04-22T04:19:13.780Z,1000.97
2019-04-22T04:20:06.444Z,1001.05
2019-04-22T04:22:00.714Z,1001.03
2019-04-22T04:23:08.468Z,1001.09
2019-04-22T04:25:54.278Z,1001.06
2019-04-22T04:27:06.720Z,1001.10
2019-04-22T04:28:25.704Z,1001.00
2019-04-22T04:29:06.429Z,1001.04
2019-04-22T04:31:25.259Z,1001.09
2019-04-22T04:32:09.791Z,1001.07
2019-04-22T04:32:57.222Z,1001.02
2019-04-22T04:33:54.574Z,1000.97
2019-04-22T04:35:53.028Z,1001.00
2019-04-22T04:40:04.714Z,1000.93
2019-04-22T04:40:58.248Z,1001.04
2019-04-22T04:42:11.257Z,1000.97
2019-04-22T04:42:54.214Z,1000.99
2019-04-22T04:46:00.969Z,1000.98
2019-04-22T04:47:00.488Z,1001.01
2019-04-22T04:47:55.306Z,1000.99
2019-04-22T04:50:01.425Z,1000.99
2019-04-22T04:51:07.751Z,1001.03
2019-04-22T04:51:55.694Z,1000.97
2019-04-22T04:53:13.081Z,1000.96
2019-04-22T04:54:08.669Z,1000.95
2019-04-22T04:55:09.739Z,1000.94
2019-04-22T04:55:51.707Z,1001.02
2019-04-22T04:56:56.798Z,1001.01
2019-04-22T04:58:10.224Z,1001.01
2019-04-22T05:00:22.087Z,1000.97
2019-04-22T05:01:56.037Z,1000.97
2019-04-22T05:04:04.917Z,1001.02
2019-04-22T05:05:06.844Z,1000.92
2019-04-22T05:06:01.295Z,1000.89
2019-04-22T05:07:56.430Z,1000.90
2019-04-22T05:09:16.728Z,1000.88
2019-04-22T05:09:59.959Z,1000.93
2019-04-22T05:11:00.465Z,1000.82
2019-04-22T05:12:01.998Z,1000.89
2019-04-22T05:13:57.701Z,1000.82
2019-04-22T05:15:00.916Z,1000.87
2019-04-22T05:16:10.755Z,1000.89
2019-04-22T05:16:54.574Z,1000.83
2019-04-22T05:17:58.162Z,1000.84
2019-04-22T05:19:57.431Z,1000.81
2019-04-22T05:21:56.358Z,1000.82
2019-04-22T05:23:55.060Z,1000.82
2019-04-22T05:24:51.962Z,1000.85
2019-04-22T05:25:48.873Z,1000.83
2019-04-22T05:28:50.073Z,1000.85
2019-04-22T05:30:48.558Z,1000.87
2019-04-22T05:31:54.905Z,1000.90
2019-04-22T05:33:03.953Z,1000.86
2019-04-22T05:33:50.957Z,1000.84
2019-04-22T05:34:47.899Z,1000.79
2019-04-22T05:35:51.452Z,1000.77
2019-04-22T05:36:55.426Z,1000.75
2019-04-22T05:38:56.037Z,1000.76
2019-04-22T05:39:52.602Z,1000.80
2019-04-22T05:40:53.686Z,1000.78
2019-04-22T05:41:48.738Z,1000.79
2019-04-22T05:42:51.539Z,1000.77
2019-04-22T05:43:50.139Z,1000.78
2019-04-22T05:44:49.774Z,1000.84
2019-04-22T05:45:56.299Z,1000.79
2019-04-22T05:46:47.985Z,1000.83
2019-04-22T05:47:52.055Z,1000.84
2019-04-22T05:48:54.229Z,1000.88
2019-04-22T05:49:49.816Z,1000.86
2019-04-22T05:50:54.567Z,1000.86
2019-04-22T05:51:48.406Z,1000.78
2019-04-22T05:52:47.130Z,1000.75
2019-04-22T05:53:48.216Z,1000.80
2019-04-22T05:54:48.639Z,1000.83
2019-04-22T05:55:46.710Z,1000.81
2019-04-22T05:57:08.337Z,1000.85
2019-04-22T05:57:51.117Z,1000.80
2019-04-22T05:58:51.500Z,1000.79
2019-04-22T05:59:56.357Z,1000.86
2019-04-22T06:01:13.114Z,1000.79
2019-04-22T06:02:01.144Z,1000.77
2019-04-22T06:02:55.666Z,1000.84
2019-04-22T06:03:50.815Z,1000.75
2019-04-22T06:04:51.806Z,1000.72
2019-04-22T06:05:47.355Z,1000.81
2019-04-22T06:06:47.951Z,1000.75
2019-04-22T06:07:46.850Z,1000.75
2019-04-22T06:08:53.776Z,1000.79
2019-04-22T06:09:49.618Z,1000.78
2019-04-22T06:11:36.012Z,1000.79
2019-04-22T06:12:43.268Z,1000.74
2019-04-22T06:13:44.401Z,1000.70
2019-04-22T06:14:50.643Z,1000.79
2019-04-22T06:15:44.009Z,1000.71
2019-04-22T06:16:53.201Z,1000.73
2019-04-22T06:17:54.853Z,1000.75
2019-04-22T06:18:55.234Z,1000.73
2019-04-22T06:19:52.820Z,1000.77
2019-04-22T06:20:56.959Z,1000.71
2019-04-22T06:22:06.898Z,1000.68
2019-04-22T06:22:50.825Z,1000.73
2019-04-22T06:23:59.923Z,1000.71
2019-04-22T06:24:49.339Z,1000.69
2019-04-22T06:27:01.614Z,1000.77
2019-04-22T06:27:48.308Z,1000.75
2019-04-22T06:28:51.875Z,1000.74
2019-04-22T06:29:46.129Z,1000.78
2019-04-22T06:30:53.499Z,1000.74
2019-04-22T06:32:15.265Z,1000.71
2019-04-22T06:32:51.867Z,1000.76
2019-04-22T06:33:48.458Z,1000.76
2019-04-22T06:34:54.740Z,1000.68
2019-04-22T06:35:49.703Z,1000.77
2019-04-22T06:36:50.883Z,1000.79
2019-04-22T06:38:12.405Z,1000.82
2019-04-22T06:38:46.585Z,1000.78
2019-04-22T06:39:44.806Z,1000.70
2019-04-22T06:40:52.127Z,1000.76
2019-04-22T06:41:47.934Z,1000.68
2019-04-22T06:42:56.599Z,1000.70
2019-04-22T06:43:56.331Z,1000.64
2019-04-22T06:44:51.604Z,1000.63
2019-04-22T06:45:43.565Z,1000.65
2019-04-22T06:46:52.098Z,1000.71
2019-04-22T06:48:50.824Z,1000.66
2019-04-22T06:49:52.564Z,1000.65
2019-04-22T06:50:47.505Z,1000.70
2019-04-22T06:52:12.904Z,1000.63
2019-04-22T06:52:52.400Z,1000.61
2019-04-22T06:53:47.593Z,1000.67
2019-04-22T06:54:50.469Z,1000.71
2019-04-22T06:55:48.220Z,1000.64
2019-04-22T06:56:53.429Z,1000.68
2019-04-22T06:57:44.901Z,1000.66
2019-04-22T06:58:51.046Z,1000.68
2019-04-22T06:59:56.734Z,1000.65
2019-04-22T07:00:44.385Z,1000.69
2019-04-22T07:01:52.491Z,1000.69
2019-04-22T07:03:12.579Z,1000.74
2019-04-22T07:03:53.589Z,1000.61
2019-04-22T07:04:49.465Z,1000.69
2019-04-22T07:05:47.559Z,1000.68
2019-04-22T07:06:48.726Z,1000.69
2019-04-22T07:07:45.298Z,1000.69
2019-04-22T07:09:47.046Z,1000.64
2019-04-22T07:10:49.176Z,1000.68
2019-04-22T07:11:48.338Z,1000.69
2019-04-22T07:12:48.698Z,1000.65
2019-04-22T07:13:50.373Z,1000.70
2019-04-22T07:14:48.884Z,1000.69
2019-04-22T07:16:52.103Z,1000.70
2019-04-22T07:17:50.828Z,1000.67
2019-04-22T07:18:53.294Z,1000.67
2019-04-22T07:19:43.719Z,1000.65
2019-04-22T07:20:50.845Z,1000.73
2019-04-22T07:21:46.920Z,1000.67
2019-04-22T07:22:45.248Z,1000.64
2019-04-22T07:23:51.284Z,1000.68
2019-04-22T07:25:45.208Z,1000.69
2019-04-22T07:26:45.104Z,1000.68
2019-04-22T07:27:47.331Z,1000.69
2019-04-22T07:28:46.268Z,1000.66
2019-04-22T07:29:46.646Z,1000.67
2019-04-22T07:30:51.202Z,1000.68
2019-04-22T07:31:50.499Z,1000.71
2019-04-22T07:33:04.829Z,1000.77
2019-04-22T07:33:51.974Z,1000.71
2019-04-22T07:35:59.011Z,1000.76
2019-04-22T07:36:53.532Z,1000.76
2019-04-22T07:38:05.750Z,1000.72
2019-04-22T07:38:42.506Z,1000.73
2019-04-22T07:39:45.784Z,1000.73
2019-04-22T07:41:48.845Z,1000.70
2019-04-22T07:42:48.096Z,1000.74
2019-04-22T07:44:07.725Z,1000.73
2019-04-22T07:44:52.868Z,1000.73
2019-04-22T07:46:03.523Z,1000.69
2019-04-22T07:46:49.954Z,1000.69
2019-04-22T07:47:56.745Z,1000.72
2019-04-22T07:51:43.656Z,1000.76
2019-04-22T07:52:46.707Z,1000.66
2019-04-22T07:53:51.656Z,1000.76
2019-04-22T07:54:46.861Z,1000.72
2019-04-22T07:55:45.644Z,1000.67
2019-04-22T07:56:50.766Z,1000.63
2019-04-22T07:57:47.157Z,1000.68
2019-04-22T07:58:45.412Z,1000.69
2019-04-22T07:59:50.937Z,1000.63
2019-04-22T08:00:53.029Z,1000.66
2019-04-22T08:01:41.824Z,1000.64
2019-04-22T08:02:50.452Z,1000.64
2019-04-22T08:04:58.018Z,1000.66
2019-04-22T08:05:58.726Z,1000.63
2019-04-22T08:06:52.298Z,1000.63
2019-04-22T08:07:52.051Z,1000.64
2019-04-22T08:08:47.481Z,1000.69
2019-04-22T08:09:51.006Z,1000.62
2019-04-22T08:10:55.467Z,1000.57
2019-04-22T08:14:00.283Z,1000.66
2019-04-22T08:14:45.901Z,1000.63
2019-04-22T08:16:51.849Z,1000.59
2019-04-22T08:18:49.282Z,1000.61
2019-04-22T08:19:48.464Z,1000.59
2019-04-22T08:20:52.836Z,1000.64
2019-04-22T08:21:49.044Z,1000.67
2019-04-22T08:22:51.070Z,1000.62
2019-04-22T08:23:52.073Z,1000.61
2019-04-22T08:24:47.182Z,1000.55
2019-04-22T08:26:46.522Z,1000.65
2019-04-22T08:27:50.469Z,1000.59
2019-04-22T08:29:55.195Z,1000.62
2019-04-22T08:30:47.662Z,1000.64
2019-04-22T08:31:48.816Z,1000.64
2019-04-22T08:32:46.038Z,1000.70
2019-04-22T08:33:49.617Z,1000.66
2019-04-22T08:34:44.013Z,1000.62
2019-04-22T08:36:00.800Z,1000.61
2019-04-22T08:37:53.865Z,1000.62
2019-04-22T08:38:52.903Z,1000.63
2019-04-22T08:40:08.854Z,1000.63
2019-04-22T08:40:50.172Z,1000.69
2019-04-22T08:41:46.090Z,1000.69
2019-04-22T08:43:56.200Z,1000.67
2019-04-22T08:45:06.180Z,1000.66
2019-04-22T08:46:48.911Z,1000.65
2019-04-22T08:47:48.243Z,1000.59
2019-04-22T08:48:51.592Z,1000.64
2019-04-22T08:49:56.899Z,1000.67
2019-04-22T08:50:44.250Z,1000.58
2019-04-22T08:51:42.565Z,1000.62
2019-04-22T08:52:48.156Z,1000.59
2019-04-22T08:53:55.999Z,1000.63
2019-04-22T08:54:50.544Z,1000.60
2019-04-22T08:56:46.049Z,1000.63
2019-04-22T08:58:55.494Z,1000.52
2019-04-22T08:59:48.703Z,1000.54
2019-04-22T09:00:50.025Z,1000.55
2019-04-22T09:01:45.353Z,1000.51
2019-04-22T09:02:49.804Z,1000.51
2019-04-22T09:03:46.988Z,1000.51
2019-04-22T09:04:45.461Z,1000.58
2019-04-22T09:07:02.416Z,1000.57
2019-04-22T09:07:46.551Z,1000.55
2019-04-22T09:08:50.175Z,1000.54
2019-04-22T09:09:44.568Z,1000.58
2019-04-22T09:10:54.172Z,1000.52
2019-04-22T09:11:52.921Z,1000.44
2019-04-22T09:12:57.901Z,1000.41
2019-04-22T09:13:49.813Z,1000.55
2019-04-22T09:15:45.112Z,1000.37
2019-04-22T09:16:48.726Z,1000.43
2019-04-22T09:17:47.922Z,1000.50
2019-04-22T09:18:48.653Z,1000.52
2019-04-22T09:19:48.117Z,1000.48
2019-04-22T09:20:48.982Z,1000.48
2019-04-22T09:21:54.530Z,1000.43
2019-04-22T09:22:48.754Z,1000.34
2019-04-22T09:23:57.227Z,1000.33
2019-04-22T09:24:46.879Z,1000.41
2019-04-22T09:26:05.044Z,1000.49
2019-04-22T09:26:47.525Z,1000.42
2019-04-22T09:28:50.993Z,1000.43
2019-04-22T09:29:42.968Z,1000.40
2019-04-22T09:30:47.143Z,1000.44
2019-04-22T09:31:45.723Z,1000.41
2019-04-22T09:32:55.772Z,1000.35
2019-04-22T09:33:43.246Z,1000.31
2019-04-22T09:34:47.313Z,1000.38
2019-04-22T09:35:51.945Z,1000.33
2019-04-22T09:36:52.869Z,1000.29
2019-04-22T09:37:48.293Z,1000.28
2019-04-22T09:39:50.784Z,1000.29
2019-04-22T09:40:59.908Z,1000.28
2019-04-22T09:41:48.279Z,1000.35
2019-04-22T09:44:49.169Z,1000.27
2019-04-22T09:45:47.821Z,1000.33
2019-04-22T09:46:46.839Z,1000.30
2019-04-22T09:47:52.580Z,1000.27
2019-04-22T09:48:55.399Z,1000.27
2019-04-22T09:49:49.594Z,1000.34
2019-04-22T09:51:44.948Z,1000.29
2019-04-22T09:52:48.540Z,1000.25
2019-04-22T09:53:54.751Z,1000.30
2019-04-22T09:54:57.853Z,1000.36
2019-04-22T09:55:43.111Z,1000.28
2019-04-22T09:57:46.980Z,1000.25
2019-04-22T09:58:53.549Z,1000.18
2019-04-22T09:59:50.781Z,1000.24
2019-04-22T10:00:55.276Z,1000.16
2019-04-22T10:02:02.456Z,1000.17
2019-04-22T10:02:48.931Z,1000.10
2019-04-22T10:03:51.699Z,1000.16
2019-04-22T10:04:47.915Z,1000.15
2019-04-22T10:05:52.471Z,1000.15
2019-04-22T10:06:40.322Z,1000.25
2019-04-22T10:07:46.841Z,1000.16
2019-04-22T10:10:49.148Z,1000.09
2019-04-22T10:11:45.388Z,1000.09
2019-04-22T10:12:42.287Z,1000.12
2019-04-22T10:13:47.617Z,1000.11
2019-04-22T10:14:47.985Z,1000.11
2019-04-22T10:15:52.067Z,1000.11
2019-04-22T10:17:36.507Z,1000.09
2019-04-22T10:18:45.644Z,1000.05
2019-04-22T10:19:51.491Z,1000.11
2019-04-22T10:20:51.828Z,1000.05
2019-04-22T10:21:59.828Z,1000.07
2019-04-22T10:22:46.057Z,1000.01
2019-04-22T10:23:44.377Z,1000.00
2019-04-22T10:24:44.686Z,999.97
2019-04-22T10:25:46.021Z,999.98
2019-04-22T10:26:56.387Z,999.97
2019-04-22T10:27:51.426Z,999.97
2019-04-22T10:29:51.768Z,999.96
2019-04-22T10:30:49.577Z,999.86
2019-04-22T10:31:46.228Z,999.93
2019-04-22T10:32:42.040Z,999.96
2019-04-22T10:33:37.956Z,999.88
2019-04-22T10:34:30.383Z,999.87
2019-04-22T10:35:23.607Z,999.84
2019-04-22T10:36:21.351Z,999.85
2019-04-22T10:37:23.466Z,999.81
2019-04-22T10:38:20.085Z,999.77
2019-04-22T10:39:20.327Z,999.76
2019-04-22T10:40:19.615Z,999.81
2019-04-22T10:41:19.028Z,999.82
2019-04-22T10:42:19.077Z,999.79
2019-04-22T10:43:19.169Z,999.76
2019-04-22T10:44:19.199Z,999.77
2019-04-22T10:45:18.991Z,999.73
2019-04-22T10:46:19.951Z,999.74
2019-04-22T10:47:20.085Z,999.70
2019-04-22T10:48:19.021Z,999.66
2019-04-22T10:49:20.230Z,999.68
2019-04-22T10:50:18.939Z,999.67
2019-04-22T10:51:19.013Z,999.73
2019-04-22T10:52:18.917Z,999.67
2019-04-22T10:53:19.680Z,999.70
2019-04-22T10:54:19.769Z,999.65
2019-04-22T10:55:19.192Z,999.69
2019-04-22T10:56:19.018Z,999.66
2019-04-22T10:57:20.079Z,999.64
2019-04-22T10:58:20.539Z,999.64
2019-04-22T10:59:18.877Z,999.63
2019-04-22T11:00:19.782Z,999.59
2019-04-22T11:01:18.827Z,999.64
2019-04-22T11:02:19.224Z,999.60
2019-04-22T11:03:20.142Z,999.59
2019-04-22T11:04:19.471Z,999.57
2019-04-22T11:05:19.932Z,999.58
2019-04-22T11:06:19.190Z,999.63
2019-04-22T11:07:20.796Z,999.65
2019-04-22T11:08:29.820Z,999.59
2019-04-22T11:09:21.254Z,999.50
2019-04-22T11:10:35.506Z,999.48
2019-04-22T11:11:32.306Z,999.48
2019-04-22T11:12:23.350Z,999.38
2019-04-22T11:13:20.099Z,999.39
2019-04-22T11:14:18.979Z,999.51
2019-04-22T11:15:18.679Z,999.44
2019-04-22T11:16:19.348Z,999.42
2019-04-22T11:17:19.547Z,999.36
2019-04-22T11:18:19.848Z,999.36
2019-04-22T11:19:19.398Z,999.34
2019-04-22T11:20:19.831Z,999.41
2019-04-22T11:21:19.939Z,999.38
2019-04-22T11:22:23.936Z,999.36
2019-04-22T11:23:20.591Z,999.34
2019-04-22T11:24:18.892Z,999.30
2019-04-22T11:25:18.573Z,999.37
2019-04-22T11:26:19.699Z,999.42
2019-04-22T11:27:18.904Z,999.35
2019-04-22T11:28:19.830Z,999.30
2019-04-22T11:29:19.568Z,999.31
2019-04-22T11:30:21.994Z,999.37
2019-04-22T11:31:20.720Z,999.29
2019-04-22T11:32:18.528Z,999.24
2019-04-22T11:33:18.564Z,999.33
2019-04-22T11:34:19.361Z,999.29
2019-04-22T11:35:19.514Z,999.34
2019-04-22T11:36:19.757Z,999.31
2019-04-22T11:37:18.609Z,999.25
2019-04-22T11:38:19.045Z,999.15
2019-04-22T11:39:19.724Z,999.19
2019-04-22T11:40:25.367Z,999.17
2019-04-22T11:41:19.567Z,999.15
2019-04-22T11:42:18.409Z,999.16
2019-04-22T11:43:19.819Z,999.21
2019-04-22T11:44:19.184Z,999.14
2019-04-22T11:45:19.332Z,999.13
2019-04-22T11:46:18.372Z,999.06
2019-04-22T11:47:19.286Z,999.03
2019-04-22T11:48:19.511Z,999.01
2019-04-22T11:49:18.401Z,999.14
2019-04-22T11:50:19.569Z,999.12
2019-04-22T11:51:18.355Z,999.11
2019-04-22T11:52:19.091Z,999.11
2019-04-22T11:53:18.644Z,999.17
2019-04-22T11:54:18.922Z,999.16
2019-04-22T11:55:19.151Z,999.03
2019-04-22T11:56:18.840Z,999.07
2019-04-22T11:57:19.217Z,999.07
2019-04-22T11:58:18.956Z,999.03
2019-04-22T11:59:18.552Z,999.05
2019-04-22T12:00:18.733Z,999.09
2019-04-22T12:01:19.191Z,999.07
2019-04-22T12:02:20.034Z,998.95
2019-04-22T12:03:18.827Z,998.98
2019-04-22T12:04:18.185Z,998.96
2019-04-22T12:05:19.553Z,998.94
2019-04-22T12:06:18.248Z,998.96
2019-04-22T12:07:19.040Z,998.91
2019-04-22T12:08:18.144Z,998.92
2019-04-22T12:09:19.436Z,998.88
2019-04-22T12:10:29.863Z,998.88
2019-04-22T12:11:20.531Z,998.86
2019-04-22T12:12:18.167Z,998.92
2019-04-22T12:13:18.090Z,998.91
2019-04-22T12:14:18.216Z,998.79
2019-04-22T12:15:19.071Z,998.84
2019-04-22T12:16:19.185Z,998.85
2019-04-22T12:17:18.238Z,998.88
2019-04-22T12:18:19.358Z,998.85
2019-04-22T12:19:18.955Z,998.85
2019-04-22T12:20:19.735Z,998.86
2019-04-22T12:21:19.351Z,998.80
2019-04-22T12:22:18.066Z,998.89
2019-04-22T12:23:18.997Z,998.84
2019-04-22T12:24:19.212Z,998.73
2019-04-22T12:25:31.240Z,998.71
2019-04-22T12:26:20.844Z,998.72
2019-04-22T12:27:19.144Z,998.65
2019-04-22T12:28:19.101Z,998.74
2019-04-22T12:29:17.965Z,998.62
2019-04-22T12:30:19.468Z,998.62
2019-04-22T12:31:17.909Z,998.62
2019-04-22T12:32:17.966Z,998.55
2019-04-22T12:33:19.061Z,998.67
2019-04-22T12:34:19.218Z,998.63
2019-04-22T12:35:17.902Z,998.61
2019-04-22T12:36:18.307Z,998.66
2019-04-22T12:37:25.773Z,998.66
2019-04-22T12:38:20.217Z,998.51
2019-04-22T12:39:17.971Z,998.53
2019-04-22T12:40:31.452Z,998.44
2019-04-22T12:41:19.704Z,998.46
2019-04-22T12:42:19.497Z,998.40
2019-04-22T12:43:20.234Z,998.42
2019-04-22T12:44:18.097Z,998.41
2019-04-22T12:45:18.389Z,998.32
2019-04-22T12:46:18.540Z,998.41
2019-04-22T12:47:17.883Z,998.30
2019-04-22T12:48:19.062Z,998.27
2019-04-22T12:49:18.194Z,998.29
2019-04-22T12:50:25.336Z,998.33
2019-04-22T12:51:18.918Z,998.27
2019-04-22T12:52:26.584Z,998.27
2019-04-22T12:53:22.025Z,998.20
2019-04-22T12:54:19.317Z,998.28
2019-04-22T12:55:17.664Z,998.23
2019-04-22T12:56:17.654Z,998.21
2019-04-22T12:57:18.723Z,998.21
2019-04-22T12:58:18.141Z,998.14
2019-04-22T12:59:17.625Z,998.18
2019-04-22T13:00:17.749Z,998.15
2019-04-22T13:01:18.999Z,998.13
2019-04-22T13:02:18.770Z,998.18
2019-04-22T13:03:18.192Z,998.16
2019-04-22T13:04:19.922Z,998.17
2019-04-22T13:05:18.593Z,998.13
2019-04-22T13:06:17.678Z,998.04
2019-04-22T13:07:17.759Z,998.02
2019-04-22T13:08:18.059Z,998.07
2019-04-22T13:09:19.378Z,998.07
2019-04-22T13:10:17.810Z,997.96
2019-04-22T13:11:20.234Z,998.03
2019-04-22T13:12:19.363Z,998.03
2019-04-22T13:13:18.926Z,997.92
2019-04-22T13:14:19.077Z,997.99
2019-04-22T13:15:18.209Z,997.88
2019-04-22T13:16:17.579Z,997.95
2019-04-22T13:17:18.887Z,997.90
2019-04-22T13:18:28.771Z,997.91
2019-04-22T13:19:20.834Z,997.90
2019-04-22T13:20:19.822Z,997.83
2019-04-22T13:21:18.580Z,997.81
2019-04-22T13:22:18.756Z,997.81
2019-04-22T13:23:18.017Z,997.81
2019-04-22T13:24:19.862Z,997.81
2019-04-22T13:25:17.704Z,997.76
2019-04-22T13:26:18.879Z,997.89
2019-04-22T13:27:17.334Z,997.77
2019-04-22T13:28:18.896Z,997.76
2019-04-22T13:29:17.330Z,997.69
2019-04-22T13:30:18.606Z,997.76
2019-04-22T13:31:20.673Z,997.80
2019-04-22T13:32:18.657Z,997.77
2019-04-22T13:33:17.821Z,997.69
2019-04-22T13:34:26.106Z,997.74
2019-04-22T13:35:19.988Z,997.77
2019-04-22T13:36:19.183Z,997.69
2019-04-22T13:37:17.258Z,997.62
2019-04-22T13:38:17.479Z,997.64
2019-04-22T13:39:18.694Z,997.52
2019-04-22T13:40:17.280Z,997.51
2019-04-22T13:41:28.903Z,997.59
2019-04-22T13:42:21.728Z,997.58
2019-04-22T13:43:18.913Z,997.55
2019-04-22T13:44:17.577Z,997.56
2019-04-22T13:45:17.902Z,997.52
2019-04-22T13:46:17.210Z,997.49
2019-04-22T13:47:35.058Z,997.52
2019-04-22T13:48:38.706Z,997.49
2019-04-22T13:49:54.031Z,997.53
2019-04-22T13:50:50.103Z,997.52
2019-04-22T13:51:52.593Z,997.52
2019-04-22T13:52:54.900Z,997.45
2019-04-22T13:54:20.694Z,997.37
2019-04-22T13:54:48.203Z,997.38
2019-04-22T13:55:46.802Z,997.42
2019-04-22T13:56:37.354Z,997.43
2019-04-22T13:57:35.900Z,997.31
2019-04-22T13:58:34.258Z,997.31
2019-04-22T13:59:28.214Z,997.40
2019-04-22T14:00:18.432Z,997.27